Buoy 47574

sailwx.info

Track history (hours):
 
Tides and Currents Weather Stations Pressure Air Temp Water Temp Dewpoint Dewpoint Depression Visibility Wind Speed Wind Dir Waves Ship Positions

Drifting buoy 47574

Last reported at 2018-Jun-24 08:04 UTC. Time now 2018-Jun-24 09:16 UTC.
Position N 29°41' W 015°46'.

Barometer 1018.5 mb
Water temperature 20.8 ° C

Date/timePositionNaut miles runAvg speedWind from/ knotsBaromVisibWave heightAir tempDewpointWater temp
2018-Jun-24 08:04N 29°41' W 015°46'0 0.0 1018.5 20.8
2018-Jun-24 08:00N 29°41' W 015°46'0 0.0 1018.5 20.8
2018-Jun-24 07:04N 29°41' W 015°46'0 0.0 1017.8 20.8
2018-Jun-24 07:00N 29°41' W 015°46'1 0.6 1017.8 20.8
2018-Jun-24 06:04N 29°41' W 015°46'0 0.0 1017.5 20.8
2018-Jun-24 06:00N 29°41' W 015°46'1 0.6 1017.5 20.8
2018-Jun-24 05:04N 29°41' W 015°47'0 0.0 1017.1 20.8
2018-Jun-24 05:00N 29°41' W 015°47'0 0.0 1017.1 20.8
2018-Jun-24 04:04N 29°41' W 015°47'1 9.0 1017.1 20.8
2018-Jun-24 04:00N 29°42' W 015°47'1 0.6 1017.1 20.8
2018-Jun-24 03:06N 29°42' W 015°47'0 0.0 1017.4 20.9
2018-Jun-24 03:00N 29°42' W 015°47'0 0.0 1017.4 20.9
2018-Jun-24 02:04N 29°42' W 015°47'1 9.0 1017.6 20.9
2018-Jun-24 02:00N 29°43' W 015°47'1 0.6 1017.6 20.9
2018-Jun-24 01:05N 29°43' W 015°48'0 0.0 1018.0 20.9
2018-Jun-24 01:00N 29°43' W 015°48'1 0.6 1018.0 20.9
2018-Jun-24 00:05N 29°43' W 015°49'0 0.0 1018.4 21.0
2018-Jun-24 00:00N 29°43' W 015°49'1 0.7 1018.4 21.0
2018-Jun-23 23:05N 29°43' W 015°49'0 0.0 1018.2 21.0
2018-Jun-23 23:00N 29°43' W 015°49'1 0.6 1018.2 21.0
2018-Jun-23 22:04N 29°43' W 015°49'0 0.0 1018.0 21.0
2018-Jun-23 22:00N 29°43' W 015°49'1 0.6 1018.0 21.0
2018-Jun-23 21:04N 29°43' W 015°50'0 0.0 1017.5 21.1
2018-Jun-23 21:00N 29°43' W 015°50'1 0.6 1017.5 21.1
2018-Jun-23 20:04N 29°43' W 015°50'0 0.0 1017.1 21.1
2018-Jun-23 20:00N 29°43' W 015°50'0 0.0 1017.1 21.1
2018-Jun-23 19:04N 29°43' W 015°50'0 0.0 1016.9 21.2
2018-Jun-23 19:00N 29°43' W 015°50'1 0.4 1016.9 21.2
2018-Jun-23 17:04N 29°44' W 015°51'0 0.0 1017.3 21.4
2018-Jun-23 17:00N 29°44' W 015°51'1 0.6 1017.3 21.4
2018-Jun-23 16:05N 29°44' W 015°52'0 0.0 1017.4 21.4
2018-Jun-23 16:00N 29°44' W 015°52'1 0.6 1017.4 21.4
2018-Jun-23 15:04N 29°44' W 015°52'0 0.0 1017.7 21.5
2018-Jun-23 15:00N 29°44' W 015°52'1 0.6 1017.7 21.5
2018-Jun-23 14:08N 29°44' W 015°52'0 0.0 1018.1 21.3
2018-Jun-23 14:00N 29°44' W 015°52'1 0.9 1018.1 21.3
2018-Jun-23 13:04N 29°45' W 015°53'0 0.0 1018.4 21.3
2018-Jun-23 13:00N 29°45' W 015°53'0 0.0 1018.4 21.3
2018-Jun-23 12:04N 29°45' W 015°53'0 0.0 1018.4 21.2
2018-Jun-23 12:00N 29°45' W 015°53'1 0.6 1018.4 21.3
2018-Jun-23 11:04N 29°45' W 015°53'0 0.0 1018.7 20.8
2018-Jun-23 11:00N 29°45' W 015°53'1 0.6 1018.7 20.8
2018-Jun-23 10:04N 29°45' W 015°54'0 0.0 1018.5 20.6
2018-Jun-23 10:00N 29°45' W 015°54'0 0.0 1018.5 20.6
2018-Jun-23 09:04N 29°45' W 015°54'0 0.0 1018.2 20.5
2018-Jun-23 09:00N 29°45' W 015°54'1 0.6 1018.2 20.5
2018-Jun-23 08:04N 29°45' W 015°55'0 0.0 1018.0 20.5
2018-Jun-23 08:00N 29°45' W 015°55'0 0.0 1018.0 20.5
2018-Jun-23 07:05N 29°45' W 015°55'0 0.0 1018.0 20.5
2018-Jun-23 07:00N 29°45' W 015°55'1 0.9 1018.0 20.5
2018-Jun-23 06:04N 29°46' W 015°55'0 0.0 1017.9 20.5
2018-Jun-23 06:00N 29°46' W 015°55'0 0.0 1017.9 20.5
2018-Jun-23 05:01N 29°46' W 015°55'0 0.0 1017.9 20.5
2018-Jun-23 05:00N 29°46' W 015°55'0 0.0 1017.9 20.5
2018-Jun-23 04:06N 29°46' W 015°55'0 0.0 1018.1 20.5
2018-Jun-23 04:00N 29°46' W 015°55'1 0.9 1018.1 20.5
2018-Jun-23 03:04N 29°46' W 015°56'0 0.0 1018.2 20.5
2018-Jun-23 03:00N 29°46' W 015°56'1 0.6 1018.2 20.5
2018-Jun-23 02:04N 29°46' W 015°56'0 0.0 1018.9 20.5
2018-Jun-23 02:00N 29°46' W 015°56'1 0.6 1018.9 20.5
2018-Jun-23 01:04N 29°47' W 015°56'1 7.8 1019.3 20.6
2018-Jun-23 01:00N 29°47' W 015°57'0 0.0 1019.3 20.6
2018-Jun-23 00:04N 29°47' W 015°57'0 0.0 1019.6 20.6
2018-Jun-23 00:00N 29°47' W 015°57'1 0.6 1019.6 20.6
2018-Jun-22 23:06N 29°47' W 015°58'0 0.0 1020.0 20.6
2018-Jun-22 23:00N 29°47' W 015°58'0 0.0 1020.0 20.6
2018-Jun-22 22:04N 29°47' W 015°58'1 9.0 1019.9 20.6
2018-Jun-22 22:00N 29°47' W 015°58'0 0.0 1019.9 20.6
2018-Jun-22 21:04N 29°47' W 015°58'0 0.0 1019.7 20.6
2018-Jun-22 21:00N 29°47' W 015°58'1 0.6 1019.7 20.6
2018-Jun-22 20:04N 29°47' W 015°58'0 0.0 1019.5 20.6
2018-Jun-22 20:00N 29°47' W 015°58'0 0.0 1019.5 20.6
2018-Jun-22 19:05N 29°47' W 015°58'0 0.0 1019.4 20.6
2018-Jun-22 19:00N 29°47' W 015°58'0 0.0 1019.4 20.6
2018-Jun-22 18:05N 29°47' W 015°58'0 0.0 1019.3 20.6
2018-Jun-22 18:00N 29°47' W 015°58'1 0.9 1019.3 20.6
2018-Jun-22 17:05N 29°48' W 015°59'0 0.0 1019.4 20.7
2018-Jun-22 17:00N 29°48' W 015°59'0 0.0 1019.4 20.7
2018-Jun-22 16:05N 29°48' W 015°59'0 0.0 1020.0 20.7
2018-Jun-22 16:00N 29°48' W 015°59'1 0.9 1020.0 20.7
2018-Jun-22 15:05N 29°49' W 015°59'0 0.0 1020.4 20.6
2018-Jun-22 15:00N 29°49' W 015°59'0 0.0 1020.4 20.6
2018-Jun-22 14:05N 29°49' W 015°59'0 0.0 1020.7 20.5
2018-Jun-22 14:00N 29°49' W 015°59'1 0.9 1020.7 20.5
2018-Jun-22 13:05N 29°49' W 016°00'0 0.0 1021.0 20.4
2018-Jun-22 13:00N 29°49' W 016°00'0 0.0 1021.0 20.4
2018-Jun-22 12:04N 29°49' W 016°00'0 0.0 1021.1 20.3
2018-Jun-22 12:00N 29°49' W 016°00'1 0.6 1021.1 20.3
2018-Jun-22 11:04N 29°49' W 016°01'0 0.0 1021.2 20.3
2018-Jun-22 11:00N 29°49' W 016°01'1 0.7 1021.2 20.3
2018-Jun-22 10:05N 29°50' W 016°01'0 0.0 1021.3 20.3
2018-Jun-22 10:00N 29°50' W 016°01'0 0.0 1021.3 20.3
2018-Jun-22 09:04N 29°50' W 016°01'0 0.0 1021.1 20.3
2018-Jun-22 09:00N 29°50' W 016°01'0 0.0 1021.1 20.3
2018-Jun-22 08:04N 29°50' W 016°01'1 7.8 1020.7 20.2
2018-Jun-22 08:00N 29°50' W 016°01'0 0.0 1020.7 20.2
2018-Jun-22 07:04N 29°50' W 016°01'0 0.0 1020.4 20.2
2018-Jun-22 07:00N 29°50' W 016°01'0 0.0 1020.4 20.2
2018-Jun-22 06:06N 29°50' W 016°01'0 0.0 1020.1 20.2
2018-Jun-22 06:00N 29°50' W 016°01'1 0.9 1020.1 20.2
2018-Jun-22 05:06N 29°50' W 016°02'0 0.0 1020.2 20.2
2018-Jun-22 05:00N 29°50' W 016°02'0 0.0 1020.2 20.2
2018-Jun-22 04:04N 29°50' W 016°02'0 0.0 1020.3 20.2
2018-Jun-22 04:00N 29°50' W 016°02'0 0.0 1020.3 20.3
2018-Jun-22 03:05N 29°50' W 016°02'0 0.0 1020.6 20.3
2018-Jun-22 03:00N 29°50' W 016°02'1 0.9 1020.6 20.3
2018-Jun-22 02:05N 29°51' W 016°02'0 0.0 1021.0 20.3
2018-Jun-22 02:00N 29°51' W 016°02'0 0.0 1021.0 20.3
2018-Jun-22 01:04N 29°51' W 016°02'0 0.0 1021.5 20.3
2018-Jun-22 01:00N 29°51' W 016°02'0 0.0 1021.5 20.3
2018-Jun-22 00:08N 29°51' W 016°02'0 0.0 1022.0 20.3
2018-Jun-22 00:00N 29°51' W 016°02'0 0.0 1022.0 20.3
2018-Jun-21 23:00N 29°51' W 016°02'1 0.9 1022.0 20.3
2018-Jun-21 22:05N 29°52' W 016°02'0 0.0 1021.6 20.3
2018-Jun-21 22:00N 29°52' W 016°02'0 0.0 1021.6 20.3
2018-Jun-21 21:04N 29°52' W 016°02'0 0.0 1021.1 20.3
2018-Jun-21 21:00N 29°52' W 016°02'1 0.7 1021.1 20.3
2018-Jun-21 20:05N 29°52' W 016°02'0 0.0 1020.6 20.4
2018-Jun-21 20:00N 29°52' W 016°02'1 0.6 1020.6 20.4
2018-Jun-21 19:06N 29°52' W 016°02'1 5.2 1020.5 20.4
2018-Jun-21 19:00N 29°52' W 016°02'1 0.9 1020.5 20.4
2018-Jun-21 18:06N 29°53' W 016°02'0 0.0 1020.5 20.4
2018-Jun-21 18:00N 29°53' W 016°02'0 0.0 1020.5 20.4
2018-Jun-21 17:04N 29°53' W 016°02'1 7.8 1020.6 20.4
2018-Jun-21 17:00N 29°53' W 016°03'1 0.7 1020.6 20.4
2018-Jun-21 16:07N 29°53' W 016°03'0 0.0 1020.8 20.4
2018-Jun-21 16:00N 29°53' W 016°03'0 0.0 1020.8 20.4
2018-Jun-21 15:08N 29°53' W 016°03'1 3.9 1021.0 20.4
2018-Jun-21 15:00N 29°53' W 016°04'1 0.6 1021.0 20.4
2018-Jun-21 14:04N 29°54' W 016°04'0 0.0 1021.1 20.4
2018-Jun-21 14:00N 29°54' W 016°04'0 0.0 1021.1 20.4
2018-Jun-21 13:04N 29°54' W 016°04'0 0.0 1021.3 20.5
2018-Jun-21 13:00N 29°54' W 016°04'0 0.0 1021.3 20.5
2018-Jun-21 12:04N 29°54' W 016°04'0 0.0 1021.4 20.3
2018-Jun-21 12:00N 29°54' W 016°04'1 0.7 1021.4 20.3
2018-Jun-21 11:05N 29°55' W 016°04'1 6.2 1021.4 20.2
2018-Jun-21 11:00N 29°55' W 016°04'0 0.0 1021.4 20.2
2018-Jun-21 10:05N 29°55' W 016°04'0 0.0 1021.1 20.1
2018-Jun-21 10:00N 29°55' W 016°04'1 0.6 1021.1 20.1
2018-Jun-21 09:00N 29°55' W 016°04'1 0.4 1021.0 20.1
2018-Jun-21 07:05N 29°56' W 016°05'0 0.0 1020.2 20.1
2018-Jun-21 07:00N 29°56' W 016°05'1 0.6 1020.2 20.1
2018-Jun-21 06:05N 29°56' W 016°05'0 0.0 1019.8 20.1
2018-Jun-21 06:00N 29°56' W 016°05'1 0.9 1019.8 20.1
2018-Jun-21 05:05N 29°56' W 016°06'0 0.0 1019.6 20.0
2018-Jun-21 05:00N 29°56' W 016°06'1 0.6 1019.6 20.0
2018-Jun-21 04:04N 29°56' W 016°07'0 0.0 1019.6 20.0
2018-Jun-21 04:00N 29°56' W 016°07'1 0.6 1019.6 20.0
2018-Jun-21 03:04N 29°56' W 016°07'0 0.0 1019.9 20.1
2018-Jun-21 03:00N 29°56' W 016°07'0 0.0 1019.9 20.1
2018-Jun-21 02:02N 29°56' W 016°07'0 0.0 1020.2 20.1
2018-Jun-21 02:00N 29°56' W 016°07'0 0.0 1020.2 20.1
2018-Jun-21 01:00N 29°56' W 016°07'0 0.0 1020.6 20.1
2018-Jun-21 00:00N 29°56' W 016°07'0 0.0 1020.8 20.1
2018-Jun-20 23:00N 29°56' W 016°07'1 0.8 1021.0 20.2
2018-Jun-20 22:00N 29°57' W 016°07'0 0.0 1020.4 20.2
2018-Jun-20 21:00N 29°57' W 016°07'0 0.0 1019.3 20.2
2018-Jun-20 20:00N 29°57' W 016°07'1 0.6 1019.2 20.2
2018-Jun-20 19:00N 29°58' W 016°07'1 0.5 1018.7 20.2
2018-Jun-20 18:00N 29°58' W 016°07'1 0.8 1018.6 20.2
2018-Jun-20 17:00N 29°58' W 016°08'0 0.0 1018.9 20.3
2018-Jun-20 16:00N 29°58' W 016°08'1 0.8 1019.0 20.3
2018-Jun-20 15:00N 29°59' W 016°08'0 0.0 1019.1 20.3
2018-Jun-20 14:05N 29°59' W 016°08'0 0.0 1019.1 20.2
2018-Jun-20 14:00N 29°59' W 016°08'0 0.0 1019.1 20.2
2018-Jun-20 13:05N 29°59' W 016°08'0 0.0 1019.5 20.3
2018-Jun-20 13:00N 29°59' W 016°08'1 0.6 1019.5 20.3
2018-Jun-20 12:04N 29°59' W 016°08'0 0.0 1019.8 20.1
2018-Jun-20 12:00N 29°59' W 016°08'1 0.6 1019.8 20.1
2018-Jun-20 11:04N 29°59' W 016°09'0 0.0 1019.7 20.0
2018-Jun-20 11:00N 29°59' W 016°09'1 0.7 1019.7 20.0
2018-Jun-20 10:05N 30°00' W 016°09'0 0.0 1019.2 19.9
2018-Jun-20 10:00N 30°00' W 016°09'0 0.0 1019.2 20.0
2018-Jun-20 09:08N 30°00' W 016°09'0 0.0 1019.1 19.9
2018-Jun-20 09:00N 30°00' W 016°09'1 0.9 1019.1 19.9
2018-Jun-20 08:04N 30°01' W 016°10'0 0.0 1018.7 19.9
2018-Jun-20 08:00N 30°01' W 016°10'1 0.6 1018.7 20.0
2018-Jun-20 07:05N 30°01' W 016°10'0 0.0 1018.5 20.0
2018-Jun-20 07:00N 30°01' W 016°10'1 0.9 1018.5 20.0
2018-Jun-20 06:04N 30°01' W 016°11'0 0.0 1018.2 20.0
2018-Jun-20 06:00N 30°01' W 016°11'1 0.9 1018.2 20.0
2018-Jun-20 05:08N 30°01' W 016°11'0 0.0 1018.0 20.0
2018-Jun-20 05:00N 30°01' W 016°11'0 0.0 1018.0 20.0
2018-Jun-20 04:07N 30°01' W 016°11'0 0.0 1017.8 20.0
2018-Jun-20 04:00N 30°01' W 016°11'1 0.6 1017.8 20.0
2018-Jun-20 03:04N 30°01' W 016°12'0 0.0 1017.9 20.0
2018-Jun-20 03:00N 30°01' W 016°12'0 0.0 1017.9 20.0
2018-Jun-20 02:06N 30°01' W 016°12'0 0.0 1018.1 20.0
2018-Jun-20 02:00N 30°01' W 016°12'1 0.6 1018.1 20.0
2018-Jun-20 01:04N 30°01' W 016°13'0 0.0 1018.4 20.1
2018-Jun-20 01:00N 30°01' W 016°13'0 0.0 1018.4 20.1
2018-Jun-20 00:04N 30°01' W 016°13'0 0.0 1018.9 20.1
2018-Jun-20 00:00N 30°01' W 016°13'0 0.0 1018.9 20.1
2018-Jun-19 23:04N 30°01' W 016°13'0 0.0 1018.9 20.1
2018-Jun-19 23:00N 30°01' W 016°13'0 0.0 1018.9 20.1
2018-Jun-19 22:08N 30°01' W 016°13'0 0.0 1018.7 20.1
2018-Jun-19 22:00N 30°01' W 016°13'0 0.0 1018.7 20.1
2018-Jun-19 21:04N 30°01' W 016°13'0 0.0 1018.3 20.1
2018-Jun-19 21:00N 30°01' W 016°13'1 0.7 1018.3 20.1
2018-Jun-19 20:06N 30°01' W 016°13'0 0.0 1018.0 20.1
2018-Jun-19 20:00N 30°01' W 016°13'0 0.0 1018.0 20.1
2018-Jun-19 19:08N 30°01' W 016°13'0 0.0 1017.6 20.1
2018-Jun-19 19:00N 30°01' W 016°13'0 0.0 1017.6 20.1
2018-Jun-19 18:04N 30°01' W 016°13'0 0.0 1017.5 20.1
2018-Jun-19 18:00N 30°01' W 016°13'1 0.7 1017.5 20.1
2018-Jun-19 17:05N 30°02' W 016°13'0 0.0 1017.7 20.1
2018-Jun-19 17:00N 30°02' W 016°13'1 0.6 1017.7 20.1
2018-Jun-19 16:04N 30°02' W 016°13'0 0.0 1018.1 20.1
2018-Jun-19 16:00N 30°02' W 016°13'1 0.7 1018.1 20.1
2018-Jun-19 15:05N 30°02' W 016°13'0 0.0 1018.2 20.1
2018-Jun-19 15:00N 30°02' W 016°13'1 0.6 1018.2 20.1
2018-Jun-19 14:05N 30°02' W 016°14'0 0.0 1018.5 20.1
2018-Jun-19 14:00N 30°02' W 016°14'1 0.9 1018.5 20.1
2018-Jun-19 13:05N 30°03' W 016°14'0 0.0 1018.8 20.1
2018-Jun-19 13:00N 30°03' W 016°14'1 0.7 1018.8 20.1
2018-Jun-19 12:05N 30°04' W 016°14'0 0.0 1019.2 20.1
2018-Jun-19 12:00N 30°04' W 016°14'1 0.9 1019.2 20.1
2018-Jun-19 11:05N 30°04' W 016°15'0 0.0 1019.3 20.0
2018-Jun-19 11:00N 30°04' W 016°15'1 0.6 1019.3 20.0
2018-Jun-19 10:05N 30°04' W 016°16'0 0.0 1019.2 19.9
2018-Jun-19 10:00N 30°04' W 016°16'1 0.6 1019.2 19.9
2018-Jun-19 09:06N 30°04' W 016°16'0 0.0 1019.2 19.9
2018-Jun-19 09:00N 30°04' W 016°16'1 0.3 1019.2 19.9
2018-Jun-19 07:04N 30°04' W 016°17'0 0.0 1018.6 19.9
2018-Jun-19 07:00N 30°04' W 016°17'1 0.6 1018.6 19.9
2018-Jun-19 06:06N 30°04' W 016°17'0 0.0 1018.2 19.9
2018-Jun-19 06:00N 30°04' W 016°17'1 0.6 1018.2 19.9
2018-Jun-19 05:07N 30°04' W 016°18'0 0.0 1018.2 19.9
2018-Jun-19 05:00N 30°04' W 016°18'0 0.0 1018.2 19.9
2018-Jun-19 04:04N 30°04' W 016°18'0 0.0 1018.0 19.9
2018-Jun-19 04:00N 30°04' W 016°18'0 0.0 1018.0 19.9
2018-Jun-19 03:08N 30°04' W 016°18'0 0.0 1018.4 19.9
2018-Jun-19 03:00N 30°04' W 016°18'0 0.0 1018.4 19.9
2018-Jun-19 02:04N 30°04' W 016°18'0 0.0 1018.8 19.9
2018-Jun-19 02:00N 30°04' W 016°18'1 0.6 1018.8 19.9
2018-Jun-19 01:00N 30°05' W 016°18'1 0.5 1019.1 19.9
2018-Jun-19 00:00N 30°05' W 016°19'1 0.7 1019.5 19.9
2018-Jun-18 23:05N 30°05' W 016°19'0 0.0 1019.7 20.0
2018-Jun-18 23:00N 30°05' W 016°19'0 0.0 1019.7 20.0
2018-Jun-18 22:00N 30°05' W 016°19'1 0.7 1019.4 20.0
2018-Jun-18 21:05N 30°06' W 016°19'0 0.0 1019.1 20.0
2018-Jun-18 21:00N 30°06' W 016°19'1 0.5 1019.1 20.0
2018-Jun-18 20:00N 30°06' W 016°19'1 0.6 1019.1 20.0
2018-Jun-18 19:04N 30°07' W 016°19'0 0.0 1018.8 20.1
2018-Jun-18 19:00N 30°07' W 016°19'1 0.5 1018.8 20.1
2018-Jun-18 18:00N 30°07' W 016°20'0 0.0 1018.9 20.1
2018-Jun-18 17:00N 30°07' W 016°20'1 0.9 1019.1 20.1
2018-Jun-18 16:05N 30°07' W 016°20'0 0.0 1019.2 20.2
2018-Jun-18 16:00N 30°07' W 016°20'0 0.0 1019.2 20.2
2018-Jun-18 15:08N 30°07' W 016°20'0 0.0 1019.6 20.1
2018-Jun-18 15:00N 30°07' W 016°20'1 0.6 1019.6 20.1
2018-Jun-18 14:04N 30°07' W 016°21'0 0.0 1020.0 20.0
2018-Jun-18 14:00N 30°07' W 016°21'1 0.6 1020.0 20.0
2018-Jun-18 13:04N 30°08' W 016°21'0 0.0 1020.3 19.9
2018-Jun-18 13:00N 30°08' W 016°21'1 0.5 1020.3 19.9
2018-Jun-18 12:00N 30°08' W 016°22'1 0.7 1020.6 19.8
2018-Jun-18 11:05N 30°08' W 016°22'0 0.0 1020.6 19.8
2018-Jun-18 11:00N 30°08' W 016°22'1 0.5 1020.6 19.8
2018-Jun-18 10:00N 30°08' W 016°22'0 0.0 1020.7 19.7
2018-Jun-18 09:04N 30°08' W 016°22'0 0.0 1020.6 19.7
2018-Jun-18 09:00N 30°08' W 016°22'1 0.8 1020.6 19.7
2018-Jun-18 08:00N 30°09' W 016°23'0 0.0 1020.3 19.7
2018-Jun-18 07:00N 30°09' W 016°23'1 0.5 1019.9 19.7
2018-Jun-18 06:00N 30°09' W 016°23'1 0.6 1019.6 19.7
2018-Jun-18 05:00N 30°10' W 016°23'0 0.0 1019.2 19.7
2018-Jun-18 04:00N 30°10' W 016°23'1 0.6 1019.4 19.7
2018-Jun-18 03:05N 30°10' W 016°24'0 0.0 1019.6 19.7
2018-Jun-18 03:00N 30°10' W 016°24'1 0.7 1019.6 19.7
2018-Jun-18 02:08N 30°10' W 016°24'0 0.0 1020.0 19.7
2018-Jun-18 02:00N 30°10' W 016°24'1 0.6 1020.0 19.7
2018-Jun-18 01:05N 30°10' W 016°25'0 0.0 1020.8 19.7
2018-Jun-18 01:00N 30°10' W 016°25'1 0.7 1020.8 19.7
2018-Jun-18 00:05N 30°11' W 016°25'0 0.0 1021.3 19.7
2018-Jun-18 00:00N 30°11' W 016°25'1 0.6 1021.3 19.7
2018-Jun-17 23:07N 30°11' W 016°25'0 0.0 1021.3 19.7
2018-Jun-17 23:00N 30°11' W 016°25'1 0.6 1021.3 19.7
2018-Jun-17 22:04N 30°11' W 016°25'0 0.0 1021.2 19.7
2018-Jun-17 22:00N 30°11' W 016°25'0 0.0 1021.2 19.7
2018-Jun-17 21:07N 30°11' W 016°25'0 0.0 1020.9 19.7
2018-Jun-17 21:00N 30°11' W 016°25'1 0.6 1020.9 19.7
2018-Jun-17 20:07N 30°11' W 016°26'0 0.0 1020.2 19.8
2018-Jun-17 20:00N 30°11' W 016°26'0 0.0 1020.2 19.8
2018-Jun-17 19:06N 30°11' W 016°26'0 0.0 1019.9 19.7
2018-Jun-17 19:00N 30°11' W 016°26'1 0.7 1019.9 19.7
2018-Jun-17 18:05N 30°12' W 016°26'1 6.2 1019.9 19.8
2018-Jun-17 18:00N 30°12' W 016°26'0 0.0 1019.9 19.8
2018-Jun-17 17:05N 30°12' W 016°26'0 0.0 1020.1 19.8
2018-Jun-17 17:00N 30°12' W 016°26'1 0.7 1020.1 19.8
2018-Jun-17 16:09N 30°13' W 016°26'0 0.0 1020.5 19.8
2018-Jun-17 16:00N 30°13' W 016°26'0 0.0 1020.5 19.8
2018-Jun-17 15:05N 30°13' W 016°26'0 0.0 1020.7 19.7
2018-Jun-17 15:00N 30°13' W 016°26'1 0.8 1020.7 19.7
2018-Jun-17 14:04N 30°13' W 016°27'0 0.0 1021.0 19.7
2018-Jun-17 14:00N 30°13' W 016°27'1 0.7 1021.0 19.7
2018-Jun-17 13:05N 30°14' W 016°27'0 0.0 1021.5 19.7
2018-Jun-17 13:00N 30°14' W 016°27'1 0.6 1021.5 19.7
2018-Jun-17 12:05N 30°14' W 016°28'0 0.0 1021.6 19.7
2018-Jun-17 12:00N 30°14' W 016°28'1 0.7 1021.6 19.7
2018-Jun-17 11:05N 30°14' W 016°28'0 0.0 1021.5 19.7
2018-Jun-17 11:00N 30°14' W 016°28'0 0.0 1021.5 19.7
2018-Jun-17 10:04N 30°14' W 016°28'1 7.8 1021.3 19.7
2018-Jun-17 10:00N 30°14' W 016°28'1 0.7 1021.3 19.7
2018-Jun-17 09:07N 30°15' W 016°28'0 0.0 1021.1 19.7
2018-Jun-17 09:00N 30°15' W 016°28'0 0.0 1021.1 19.7
2018-Jun-17 08:05N 30°15' W 016°28'0 0.0 1021.0 19.6
2018-Jun-17 08:00N 30°15' W 016°28'1 0.6 1021.0 19.7
2018-Jun-17 07:05N 30°15' W 016°29'0 0.0 1020.8 19.6
2018-Jun-17 07:00N 30°15' W 016°29'1 0.6 1020.8 19.7
2018-Jun-17 06:04N 30°16' W 016°29'0 0.0 1020.9 19.6
2018-Jun-17 06:00N 30°16' W 016°29'1 0.6 1020.9 19.7
2018-Jun-17 05:05N 30°16' W 016°29'0 0.0 1020.7 19.7
2018-Jun-17 05:00N 30°16' W 016°29'1 0.6 1020.7 19.7
2018-Jun-17 04:04N 30°16' W 016°29'0 0.0 1020.7 19.7
2018-Jun-17 04:00N 30°16' W 016°29'1 0.6 1020.7 19.7
2018-Jun-17 03:00N 30°17' W 016°29'1 0.6 1020.6 19.7
2018-Jun-17 02:06N 30°17' W 016°30'0 0.0 1020.9 19.7
2018-Jun-17 02:00N 30°17' W 016°30'1 0.7 1020.9 19.7
2018-Jun-17 01:05N 30°17' W 016°30'0 0.0 1021.3 19.7
2018-Jun-17 01:00N 30°17' W 016°30'1 0.6 1021.3 19.7
2018-Jun-17 00:06N 30°17' W 016°31'0 0.0 1022.0 19.7
2018-Jun-17 00:00N 30°17' W 016°31'0 0.0 1022.0 19.7
2018-Jun-16 23:04N 30°17' W 016°31'0 0.0 1022.1 19.7
2018-Jun-16 23:00N 30°17' W 016°31'1 0.7 1022.1 19.7
2018-Jun-16 22:06N 30°18' W 016°31'0 0.0 1022.0 19.7
2018-Jun-16 22:00N 30°18' W 016°31'1 0.6 1022.0 19.7
2018-Jun-16 21:05N 30°18' W 016°31'0 0.0 1021.5 19.7
2018-Jun-16 21:00N 30°18' W 016°31'1 0.6 1021.5 19.7
2018-Jun-16 20:00N 30°19' W 016°31'0 0.0 1021.0 19.7
2018-Jun-16 19:04N 30°19' W 016°31'0 0.0 1020.8 19.8
2018-Jun-16 19:00N 30°19' W 016°31'1 0.6 1020.8 19.8
2018-Jun-16 18:04N 30°19' W 016°31'0 0.0 1020.6 19.8
2018-Jun-16 18:00N 30°19' W 016°31'0 0.0 1020.6 19.8
2018-Jun-16 17:06N 30°19' W 016°31'0 0.0 1020.9 19.8
2018-Jun-16 17:00N 30°19' W 016°31'1 0.7 1020.9 19.8
2018-Jun-16 16:05N 30°20' W 016°31'0 0.0 1021.0 19.8
2018-Jun-16 16:00N 30°20' W 016°31'1 0.6 1021.0 19.8
2018-Jun-16 15:04N 30°20' W 016°31'0 0.0 1021.3 19.8
2018-Jun-16 15:00N 30°20' W 016°31'1 0.7 1021.3 19.8
2018-Jun-16 14:06N 30°21' W 016°31'0 0.0 1021.6 19.8
2018-Jun-16 14:00N 30°21' W 016°31'1 0.8 1021.6 19.8
2018-Jun-16 13:04N 30°22' W 016°32'0 0.0 1021.6 19.7
2018-Jun-16 13:00N 30°22' W 016°32'1 0.9 1021.6 19.7
2018-Jun-16 12:06N 30°22' W 016°32'0 0.0 1021.9 19.7
2018-Jun-16 12:00N 30°22' W 016°32'1 0.9 1021.9 19.7
2018-Jun-16 11:05N 30°23' W 016°33'0 0.0 1021.9 19.7
2018-Jun-16 11:00N 30°23' W 016°33'1 0.6 1021.9 19.7
2018-Jun-16 10:05N 30°23' W 016°34'0 0.0 1021.7 19.7
2018-Jun-16 10:00N 30°23' W 016°34'0 0.0 1021.7 19.7
2018-Jun-16 09:04N 30°23' W 016°34'0 0.0 1021.4 19.7
2018-Jun-16 09:00N 30°23' W 016°34'0 0.0 1021.4 19.7
2018-Jun-16 08:05N 30°23' W 016°34'1 6.2 1021.2 19.7
2018-Jun-16 08:00N 30°23' W 016°34'1 0.7 1021.2 19.7
2018-Jun-16 07:05N 30°23' W 016°34'0 0.0 1020.5 19.7
2018-Jun-16 07:00N 30°23' W 016°34'1 0.5 1020.5 19.7
2018-Jun-16 06:01N 30°23' W 016°34'0 0.0 1020.0 19.7
2018-Jun-16 06:00N 30°23' W 016°34'0 0.0 1020.0 19.7
2018-Jun-16 05:05N 30°23' W 016°34'0 0.0 1019.8 19.7
2018-Jun-16 05:00N 30°23' W 016°34'1 0.6 1019.8 19.7
2018-Jun-16 04:00N 30°24' W 016°34'1 0.7 1019.8 19.7
2018-Jun-16 03:05N 30°25' W 016°34'0 0.0 1019.9 19.7
2018-Jun-16 03:00N 30°25' W 016°34'1 0.6 1019.9 19.7
2018-Jun-16 02:04N 30°25' W 016°34'0 0.0 1020.1 19.7
2018-Jun-16 02:00N 30°25' W 016°34'1 0.7 1020.1 19.7
2018-Jun-16 01:05N 30°26' W 016°34'0 0.0 1020.4 19.7
2018-Jun-16 01:00N 30°26' W 016°34'1 0.9 1020.4 19.7
2018-Jun-16 00:05N 30°26' W 016°34'0 0.0 1021.0 19.7
2018-Jun-16 00:00N 30°26' W 016°34'1 0.6 1021.0 19.7
2018-Jun-15 23:04N 30°27' W 016°34'0 0.0 1021.0 19.8
2018-Jun-15 23:00N 30°27' W 016°34'1 0.9 1021.0 19.8
2018-Jun-15 22:06N 30°28' W 016°35'0 0.0 1020.6 19.8
2018-Jun-15 22:00N 30°28' W 016°35'1 0.7 1020.6 19.8
2018-Jun-15 21:08N 30°28' W 016°35'0 0.0 1019.9 19.8
2018-Jun-15 21:00N 30°28' W 016°35'1 0.6 1019.9 19.8
2018-Jun-15 20:05N 30°28' W 016°35'1 7.2 1019.6 19.8
2018-Jun-15 20:00N 30°29' W 016°35'0 0.0 1019.6 19.8
2018-Jun-15 19:04N 30°29' W 016°35'0 0.0 1019.4 19.8
2018-Jun-15 19:00N 30°29' W 016°35'1 0.7 1019.4 19.8
2018-Jun-15 18:08N 30°29' W 016°35'0 0.0 1019.4 19.8
2018-Jun-15 18:00N 30°29' W 016°35'1 0.7 1019.4 19.8
2018-Jun-15 17:05N 30°30' W 016°35'0 0.0 1019.6 19.9
2018-Jun-15 17:00N 30°30' W 016°35'1 0.7 1019.6 19.9
2018-Jun-15 16:05N 30°31' W 016°35'0 0.0 1019.9 19.9
2018-Jun-15 16:00N 30°31' W 016°35'1 0.7 1019.9 19.9
2018-Jun-15 15:08N 30°31' W 016°35'0 0.0 1020.2 19.9
2018-Jun-15 15:00N 30°31' W 016°35'1 0.8 1020.2 19.9
2018-Jun-15 14:04N 30°32' W 016°36'0 0.0 1020.5 19.8
2018-Jun-15 14:00N 30°32' W 016°36'0 0.0 1020.5 19.8
2018-Jun-15 13:05N 30°32' W 016°36'0 0.0 1020.9 19.8
2018-Jun-15 13:00N 30°32' W 016°36'1 0.9 1020.9 19.8
2018-Jun-15 12:06N 30°32' W 016°37'0 0.0 1021.3 19.7
2018-Jun-15 12:00N 30°32' W 016°37'1 0.7 1021.3 19.7
2018-Jun-15 11:07N 30°33' W 016°37'0 0.0 1021.3 19.7
2018-Jun-15 11:00N 30°33' W 016°37'1 0.6 1021.3 19.7
2018-Jun-15 10:07N 30°33' W 016°37'0 0.0 1021.4 19.6
2018-Jun-15 10:00N 30°33' W 016°37'1 0.6 1021.4 19.6
2018-Jun-15 09:04N 30°34' W 016°37'0 0.0 1021.2 19.6
2018-Jun-15 09:00N 30°34' W 016°37'1 0.7 1021.2 19.6
2018-Jun-15 08:07N 30°34' W 016°37'0 0.0 1021.0 19.6
2018-Jun-15 08:00N 30°34' W 016°37'1 0.7 1021.0 19.6
2018-Jun-15 07:05N 30°35' W 016°37'0 0.0 1020.4 19.6
2018-Jun-15 07:00N 30°35' W 016°37'1 0.9 1020.4 19.6
2018-Jun-15 06:06N 30°35' W 016°37'1 5.2 1020.3 19.6
2018-Jun-15 06:00N 30°35' W 016°37'1 0.9 1020.3 19.6
2018-Jun-15 05:05N 30°36' W 016°37'0 0.0 1020.3 19.6
2018-Jun-15 05:00N 30°36' W 016°37'1 0.7 1020.3 19.6
2018-Jun-15 04:07N 30°37' W 016°37'0 0.0 1020.4 19.6
2018-Jun-15 04:00N 30°37' W 016°37'1 0.6 1020.4 19.7
2018-Jun-15 03:04N 30°37' W 016°37'0 0.0 1020.7 19.6
2018-Jun-15 03:00N 30°37' W 016°37'1 0.9 1020.7 19.7
2018-Jun-15 02:05N 30°38' W 016°37'0 0.0 1021.2 19.7
2018-Jun-15 02:00N 30°38' W 016°37'1 0.7 1021.2 19.7
2018-Jun-15 01:06N 30°38' W 016°37'0 0.0 1021.9 19.7
2018-Jun-15 01:00N 30°38' W 016°37'1 0.7 1021.9 19.7
2018-Jun-15 00:07N 30°39' W 016°37'0 0.0 1022.3 19.7
2018-Jun-15 00:00N 30°39' W 016°37'1 0.7 1022.3 19.7
2018-Jun-14 23:05N 30°40' W 016°37'1 6.2 1022.5 19.7
2018-Jun-14 23:00N 30°40' W 016°38'0 0.0 1022.5 19.7
2018-Jun-14 22:04N 30°40' W 016°38'1 9.0 1022.5 19.7
2018-Jun-14 22:00N 30°40' W 016°38'0 0.0 1022.5 19.7
2018-Jun-14 21:07N 30°40' W 016°38'0 0.0 1022.1 19.7
2018-Jun-14 21:00N 30°40' W 016°38'1 0.9 1022.1 19.7
2018-Jun-14 20:05N 30°41' W 016°37'0 0.0 1022.1 19.7
2018-Jun-14 20:00N 30°41' W 016°37'1 0.6 1022.1 19.7
2018-Jun-14 19:04N 30°41' W 016°37'0 0.0 1022.0 19.7
2018-Jun-14 19:00N 30°41' W 016°37'1 0.7 1022.0 19.7
2018-Jun-14 18:05N 30°42' W 016°37'0 0.0 1021.8 19.8
2018-Jun-14 18:00N 30°42' W 016°37'1 0.9 1021.8 19.8
2018-Jun-14 17:08N 30°43' W 016°37'0 0.0 1021.8 19.7
2018-Jun-14 17:00N 30°43' W 016°37'1 0.6 1021.8 19.7
2018-Jun-14 16:04N 30°43' W 016°37'0 0.0 1022.2 19.8
2018-Jun-14 16:00N 30°43' W 016°37'1 0.6 1022.2 19.8
2018-Jun-14 15:01N 30°44' W 016°37'0 0.0 1022.4 19.7
2018-Jun-14 15:00N 30°44' W 016°37'1 0.8 1022.4 19.7
2018-Jun-14 14:04N 30°44' W 016°36'0 0.0 1022.7 19.7
2018-Jun-14 14:00N 30°44' W 016°36'0 0.0 1022.7 19.7
2018-Jun-14 13:06N 30°44' W 016°36'0 0.0 1023.1 19.7
2018-Jun-14 13:00N 30°44' W 016°36'1 0.6 1023.1 19.7
2018-Jun-14 12:01N 30°45' W 016°36'0 0.0 1023.3 19.7
2018-Jun-14 12:00N 30°45' W 016°36'0 0.0 1023.3 19.7
2018-Jun-14 11:05N 30°45' W 016°36'0 0.0 1023.4 19.7
2018-Jun-14 11:00N 30°45' W 016°36'1 0.8 1023.4 19.7
2018-Jun-14 10:04N 30°46' W 016°35'0 0.0 1023.2 19.7
2018-Jun-14 10:00N 30°46' W 016°35'1 0.7 1023.2 19.7
2018-Jun-14 09:08N 30°46' W 016°35'0 0.0 1023.1 19.7
2018-Jun-14 09:00N 30°46' W 016°35'1 1.4 1023.1 19.7
2018-Jun-14 08:05N 30°47' W 016°35'   1022.8 19.7
Track history (hours):
 
Tides and Currents Weather Stations Pressure Air Temp Water Temp Dewpoint Dewpoint Depression Visibility Wind Speed Wind Dir Waves Ship Positions

Drifting buoy 47574

Last reported at 2018-Jun-24 08:04 UTC. Time now 2018-Jun-24 09:16 UTC.
Position N 29°41' W 015°46'.

Barometer 1018.5 mb
Water temperature 20.8 ° C

Date/timePositionNaut miles runAvg speedWind from/ knotsBaromVisibWave heightAir tempDewpointWater temp
2018-Jun-24 08:04N 29°41' W 015°46'0 0.0 1018.5 20.8
2018-Jun-24 08:00N 29°41' W 015°46'0 0.0 1018.5 20.8
2018-Jun-24 07:04N 29°41' W 015°46'0 0.0 1017.8 20.8
2018-Jun-24 07:00N 29°41' W 015°46'1 0.6 1017.8 20.8
2018-Jun-24 06:04N 29°41' W 015°46'0 0.0 1017.5 20.8
2018-Jun-24 06:00N 29°41' W 015°46'1 0.6 1017.5 20.8
2018-Jun-24 05:04N 29°41' W 015°47'0 0.0 1017.1 20.8
2018-Jun-24 05:00N 29°41' W 015°47'0 0.0 1017.1 20.8
2018-Jun-24 04:04N 29°41' W 015°47'1 9.0 1017.1 20.8
2018-Jun-24 04:00N 29°42' W 015°47'1 0.6 1017.1 20.8
2018-Jun-24 03:06N 29°42' W 015°47'0 0.0 1017.4 20.9
2018-Jun-24 03:00N 29°42' W 015°47'0 0.0 1017.4 20.9
2018-Jun-24 02:04N 29°42' W 015°47'1 9.0 1017.6 20.9
2018-Jun-24 02:00N 29°43' W 015°47'1 0.6 1017.6 20.9
2018-Jun-24 01:05N 29°43' W 015°48'0 0.0 1018.0 20.9
2018-Jun-24 01:00N 29°43' W 015°48'1 0.6 1018.0 20.9
2018-Jun-24 00:05N 29°43' W 015°49'0 0.0 1018.4 21.0
2018-Jun-24 00:00N 29°43' W 015°49'1 0.7 1018.4 21.0
2018-Jun-23 23:05N 29°43' W 015°49'0 0.0 1018.2 21.0
2018-Jun-23 23:00N 29°43' W 015°49'1 0.6 1018.2 21.0
2018-Jun-23 22:04N 29°43' W 015°49'0 0.0 1018.0 21.0
2018-Jun-23 22:00N 29°43' W 015°49'1 0.6 1018.0 21.0
2018-Jun-23 21:04N 29°43' W 015°50'0 0.0 1017.5 21.1
2018-Jun-23 21:00N 29°43' W 015°50'1 0.6 1017.5 21.1
2018-Jun-23 20:04N 29°43' W 015°50'0 0.0 1017.1 21.1
2018-Jun-23 20:00N 29°43' W 015°50'0 0.0 1017.1 21.1
2018-Jun-23 19:04N 29°43' W 015°50'0 0.0 1016.9 21.2
2018-Jun-23 19:00N 29°43' W 015°50'1 0.4 1016.9 21.2
2018-Jun-23 17:04N 29°44' W 015°51'0 0.0 1017.3 21.4
2018-Jun-23 17:00N 29°44' W 015°51'1 0.6 1017.3 21.4
2018-Jun-23 16:05N 29°44' W 015°52'0 0.0 1017.4 21.4
2018-Jun-23 16:00N 29°44' W 015°52'1 0.6 1017.4 21.4
2018-Jun-23 15:04N 29°44' W 015°52'0 0.0 1017.7 21.5
2018-Jun-23 15:00N 29°44' W 015°52'1 0.6 1017.7 21.5
2018-Jun-23 14:08N 29°44' W 015°52'0 0.0 1018.1 21.3
2018-Jun-23 14:00N 29°44' W 015°52'1 0.9 1018.1 21.3
2018-Jun-23 13:04N 29°45' W 015°53'0 0.0 1018.4 21.3
2018-Jun-23 13:00N 29°45' W 015°53'0 0.0 1018.4 21.3
2018-Jun-23 12:04N 29°45' W 015°53'0 0.0 1018.4 21.2
2018-Jun-23 12:00N 29°45' W 015°53'1 0.6 1018.4 21.3
2018-Jun-23 11:04N 29°45' W 015°53'0 0.0 1018.7 20.8
2018-Jun-23 11:00N 29°45' W 015°53'1 0.6 1018.7 20.8
2018-Jun-23 10:04N 29°45' W 015°54'0 0.0 1018.5 20.6
2018-Jun-23 10:00N 29°45' W 015°54'0 0.0 1018.5 20.6
2018-Jun-23 09:04N 29°45' W 015°54'0 0.0 1018.2 20.5
2018-Jun-23 09:00N 29°45' W 015°54'1 0.6 1018.2 20.5
2018-Jun-23 08:04N 29°45' W 015°55'0 0.0 1018.0 20.5
2018-Jun-23 08:00N 29°45' W 015°55'0 0.0 1018.0 20.5
2018-Jun-23 07:05N 29°45' W 015°55'0 0.0 1018.0 20.5
2018-Jun-23 07:00N 29°45' W 015°55'1 0.9 1018.0 20.5
2018-Jun-23 06:04N 29°46' W 015°55'0 0.0 1017.9 20.5
2018-Jun-23 06:00N 29°46' W 015°55'0 0.0 1017.9 20.5
2018-Jun-23 05:01N 29°46' W 015°55'0 0.0 1017.9 20.5
2018-Jun-23 05:00N 29°46' W 015°55'0 0.0 1017.9 20.5
2018-Jun-23 04:06N 29°46' W 015°55'0 0.0 1018.1 20.5
2018-Jun-23 04:00N 29°46' W 015°55'1 0.9 1018.1 20.5
2018-Jun-23 03:04N 29°46' W 015°56'0 0.0 1018.2 20.5
2018-Jun-23 03:00N 29°46' W 015°56'1 0.6 1018.2 20.5
2018-Jun-23 02:04N 29°46' W 015°56'0 0.0 1018.9 20.5
2018-Jun-23 02:00N 29°46' W 015°56'1 0.6 1018.9 20.5
2018-Jun-23 01:04N 29°47' W 015°56'1 7.8 1019.3 20.6
2018-Jun-23 01:00N 29°47' W 015°57'0 0.0 1019.3 20.6
2018-Jun-23 00:04N 29°47' W 015°57'0 0.0 1019.6 20.6
2018-Jun-23 00:00N 29°47' W 015°57'1 0.6 1019.6 20.6
2018-Jun-22 23:06N 29°47' W 015°58'0 0.0 1020.0 20.6
2018-Jun-22 23:00N 29°47' W 015°58'0 0.0 1020.0 20.6
2018-Jun-22 22:04N 29°47' W 015°58'1 9.0 1019.9 20.6
2018-Jun-22 22:00N 29°47' W 015°58'0 0.0 1019.9 20.6
2018-Jun-22 21:04N 29°47' W 015°58'0 0.0 1019.7 20.6
2018-Jun-22 21:00N 29°47' W 015°58'1 0.6 1019.7 20.6
2018-Jun-22 20:04N 29°47' W 015°58'0 0.0 1019.5 20.6
2018-Jun-22 20:00N 29°47' W 015°58'0 0.0 1019.5 20.6
2018-Jun-22 19:05N 29°47' W 015°58'0 0.0 1019.4 20.6
2018-Jun-22 19:00N 29°47' W 015°58'0 0.0 1019.4 20.6
2018-Jun-22 18:05N 29°47' W 015°58'0 0.0 1019.3 20.6
2018-Jun-22 18:00N 29°47' W 015°58'1 0.9 1019.3 20.6
2018-Jun-22 17:05N 29°48' W 015°59'0 0.0 1019.4 20.7
2018-Jun-22 17:00N 29°48' W 015°59'0 0.0 1019.4 20.7
2018-Jun-22 16:05N 29°48' W 015°59'0 0.0 1020.0 20.7
2018-Jun-22 16:00N 29°48' W 015°59'1 0.9 1020.0 20.7
2018-Jun-22 15:05N 29°49' W 015°59'0 0.0 1020.4 20.6
2018-Jun-22 15:00N 29°49' W 015°59'0 0.0 1020.4 20.6
2018-Jun-22 14:05N 29°49' W 015°59'0 0.0 1020.7 20.5
2018-Jun-22 14:00N 29°49' W 015°59'1 0.9 1020.7 20.5
2018-Jun-22 13:05N 29°49' W 016°00'0 0.0 1021.0 20.4
2018-Jun-22 13:00N 29°49' W 016°00'0 0.0 1021.0 20.4
2018-Jun-22 12:04N 29°49' W 016°00'0 0.0 1021.1 20.3
2018-Jun-22 12:00N 29°49' W 016°00'1 0.6 1021.1 20.3
2018-Jun-22 11:04N 29°49' W 016°01'0 0.0 1021.2 20.3
2018-Jun-22 11:00N 29°49' W 016°01'1 0.7 1021.2 20.3
2018-Jun-22 10:05N 29°50' W 016°01'0 0.0 1021.3 20.3
2018-Jun-22 10:00N 29°50' W 016°01'0 0.0 1021.3 20.3
2018-Jun-22 09:04N 29°50' W 016°01'0 0.0 1021.1 20.3
2018-Jun-22 09:00N 29°50' W 016°01'0 0.0 1021.1 20.3
2018-Jun-22 08:04N 29°50' W 016°01'1 7.8 1020.7 20.2
2018-Jun-22 08:00N 29°50' W 016°01'0 0.0 1020.7 20.2
2018-Jun-22 07:04N 29°50' W 016°01'0 0.0 1020.4 20.2
2018-Jun-22 07:00N 29°50' W 016°01'0 0.0 1020.4 20.2
2018-Jun-22 06:06N 29°50' W 016°01'0 0.0 1020.1 20.2
2018-Jun-22 06:00N 29°50' W 016°01'1 0.9 1020.1 20.2
2018-Jun-22 05:06N 29°50' W 016°02'0 0.0 1020.2 20.2
2018-Jun-22 05:00N 29°50' W 016°02'0 0.0 1020.2 20.2
2018-Jun-22 04:04N 29°50' W 016°02'0 0.0 1020.3 20.2
2018-Jun-22 04:00N 29°50' W 016°02'0 0.0 1020.3 20.3
2018-Jun-22 03:05N 29°50' W 016°02'0 0.0 1020.6 20.3
2018-Jun-22 03:00N 29°50' W 016°02'1 0.9 1020.6 20.3
2018-Jun-22 02:05N 29°51' W 016°02'0 0.0 1021.0 20.3
2018-Jun-22 02:00N 29°51' W 016°02'0 0.0 1021.0 20.3
2018-Jun-22 01:04N 29°51' W 016°02'0 0.0 1021.5 20.3
2018-Jun-22 01:00N 29°51' W 016°02'0 0.0 1021.5 20.3
2018-Jun-22 00:08N 29°51' W 016°02'0 0.0 1022.0 20.3
2018-Jun-22 00:00N 29°51' W 016°02'0 0.0 1022.0 20.3
2018-Jun-21 23:00N 29°51' W 016°02'1 0.9 1022.0 20.3
2018-Jun-21 22:05N 29°52' W 016°02'0 0.0 1021.6 20.3
2018-Jun-21 22:00N 29°52' W 016°02'0 0.0 1021.6 20.3
2018-Jun-21 21:04N 29°52' W 016°02'0 0.0 1021.1 20.3
2018-Jun-21 21:00N 29°52' W 016°02'1 0.7 1021.1 20.3
2018-Jun-21 20:05N 29°52' W 016°02'0 0.0 1020.6 20.4
2018-Jun-21 20:00N 29°52' W 016°02'1 0.6 1020.6 20.4
2018-Jun-21 19:06N 29°52' W 016°02'1 5.2 1020.5 20.4
2018-Jun-21 19:00N 29°52' W 016°02'1 0.9 1020.5 20.4
2018-Jun-21 18:06N 29°53' W 016°02'0 0.0 1020.5 20.4
2018-Jun-21 18:00N 29°53' W 016°02'0 0.0 1020.5 20.4
2018-Jun-21 17:04N 29°53' W 016°02'1 7.8 1020.6 20.4
2018-Jun-21 17:00N 29°53' W 016°03'1 0.7 1020.6 20.4
2018-Jun-21 16:07N 29°53' W 016°03'0 0.0 1020.8 20.4
2018-Jun-21 16:00N 29°53' W 016°03'0 0.0 1020.8 20.4
2018-Jun-21 15:08N 29°53' W 016°03'1 3.9 1021.0 20.4
2018-Jun-21 15:00N 29°53' W 016°04'1 0.6 1021.0 20.4
2018-Jun-21 14:04N 29°54' W 016°04'0 0.0 1021.1 20.4
2018-Jun-21 14:00N 29°54' W 016°04'0 0.0 1021.1 20.4
2018-Jun-21 13:04N 29°54' W 016°04'0 0.0 1021.3 20.5
2018-Jun-21 13:00N 29°54' W 016°04'0 0.0 1021.3 20.5
2018-Jun-21 12:04N 29°54' W 016°04'0 0.0 1021.4 20.3
2018-Jun-21 12:00N 29°54' W 016°04'1 0.7 1021.4 20.3
2018-Jun-21 11:05N 29°55' W 016°04'1 6.2 1021.4 20.2
2018-Jun-21 11:00N 29°55' W 016°04'0 0.0 1021.4 20.2
2018-Jun-21 10:05N 29°55' W 016°04'0 0.0 1021.1 20.1
2018-Jun-21 10:00N 29°55' W 016°04'1 0.6 1021.1 20.1
2018-Jun-21 09:00N 29°55' W 016°04'1 0.4 1021.0 20.1
2018-Jun-21 07:05N 29°56' W 016°05'0 0.0 1020.2 20.1
2018-Jun-21 07:00N 29°56' W 016°05'1 0.6 1020.2 20.1
2018-Jun-21 06:05N 29°56' W 016°05'0 0.0 1019.8 20.1
2018-Jun-21 06:00N 29°56' W 016°05'1 0.9 1019.8 20.1
2018-Jun-21 05:05N 29°56' W 016°06'0 0.0 1019.6 20.0
2018-Jun-21 05:00N 29°56' W 016°06'1 0.6 1019.6 20.0
2018-Jun-21 04:04N 29°56' W 016°07'0 0.0 1019.6 20.0
2018-Jun-21 04:00N 29°56' W 016°07'1 0.6 1019.6 20.0
2018-Jun-21 03:04N 29°56' W 016°07'0 0.0 1019.9 20.1
2018-Jun-21 03:00N 29°56' W 016°07'0 0.0 1019.9 20.1
2018-Jun-21 02:02N 29°56' W 016°07'0 0.0 1020.2 20.1
2018-Jun-21 02:00N 29°56' W 016°07'0 0.0 1020.2 20.1
2018-Jun-21 01:00N 29°56' W 016°07'0 0.0 1020.6 20.1
2018-Jun-21 00:00N 29°56' W 016°07'0 0.0 1020.8 20.1
2018-Jun-20 23:00N 29°56' W 016°07'1 0.8 1021.0 20.2
2018-Jun-20 22:00N 29°57' W 016°07'0 0.0 1020.4 20.2
2018-Jun-20 21:00N 29°57' W 016°07'0 0.0 1019.3 20.2
2018-Jun-20 20:00N 29°57' W 016°07'1 0.6 1019.2 20.2
2018-Jun-20 19:00N 29°58' W 016°07'1 0.5 1018.7 20.2
2018-Jun-20 18:00N 29°58' W 016°07'1 0.8 1018.6 20.2
2018-Jun-20 17:00N 29°58' W 016°08'0 0.0 1018.9 20.3
2018-Jun-20 16:00N 29°58' W 016°08'1 0.8 1019.0 20.3
2018-Jun-20 15:00N 29°59' W 016°08'0 0.0 1019.1 20.3
2018-Jun-20 14:05N 29°59' W 016°08'0 0.0 1019.1 20.2
2018-Jun-20 14:00N 29°59' W 016°08'0 0.0 1019.1 20.2
2018-Jun-20 13:05N 29°59' W 016°08'0 0.0 1019.5 20.3
2018-Jun-20 13:00N 29°59' W 016°08'1 0.6 1019.5 20.3
2018-Jun-20 12:04N 29°59' W 016°08'0 0.0 1019.8 20.1
2018-Jun-20 12:00N 29°59' W 016°08'1 0.6 1019.8 20.1
2018-Jun-20 11:04N 29°59' W 016°09'0 0.0 1019.7 20.0
2018-Jun-20 11:00N 29°59' W 016°09'1 0.7 1019.7 20.0
2018-Jun-20 10:05N 30°00' W 016°09'0 0.0 1019.2 19.9
2018-Jun-20 10:00N 30°00' W 016°09'0 0.0 1019.2 20.0
2018-Jun-20 09:08N 30°00' W 016°09'0 0.0 1019.1 19.9
2018-Jun-20 09:00N 30°00' W 016°09'1 0.9 1019.1 19.9
2018-Jun-20 08:04N 30°01' W 016°10'0 0.0 1018.7 19.9
2018-Jun-20 08:00N 30°01' W 016°10'1 0.6 1018.7 20.0
2018-Jun-20 07:05N 30°01' W 016°10'0 0.0 1018.5 20.0
2018-Jun-20 07:00N 30°01' W 016°10'1 0.9 1018.5 20.0
2018-Jun-20 06:04N 30°01' W 016°11'0 0.0 1018.2 20.0
2018-Jun-20 06:00N 30°01' W 016°11'1 0.9 1018.2 20.0
2018-Jun-20 05:08N 30°01' W 016°11'0 0.0 1018.0 20.0
2018-Jun-20 05:00N 30°01' W 016°11'0 0.0 1018.0 20.0
2018-Jun-20 04:07N 30°01' W 016°11'0 0.0 1017.8 20.0
2018-Jun-20 04:00N 30°01' W 016°11'1 0.6 1017.8 20.0
2018-Jun-20 03:04N 30°01' W 016°12'0 0.0 1017.9 20.0
2018-Jun-20 03:00N 30°01' W 016°12'0 0.0 1017.9 20.0
2018-Jun-20 02:06N 30°01' W 016°12'0 0.0 1018.1 20.0
2018-Jun-20 02:00N 30°01' W 016°12'1 0.6 1018.1 20.0
2018-Jun-20 01:04N 30°01' W 016°13'0 0.0 1018.4 20.1
2018-Jun-20 01:00N 30°01' W 016°13'0 0.0 1018.4 20.1
2018-Jun-20 00:04N 30°01' W 016°13'0 0.0 1018.9 20.1
2018-Jun-20 00:00N 30°01' W 016°13'0 0.0 1018.9 20.1
2018-Jun-19 23:04N 30°01' W 016°13'0 0.0 1018.9 20.1
2018-Jun-19 23:00N 30°01' W 016°13'0 0.0 1018.9 20.1
2018-Jun-19 22:08N 30°01' W 016°13'0 0.0 1018.7 20.1
2018-Jun-19 22:00N 30°01' W 016°13'0 0.0 1018.7 20.1
2018-Jun-19 21:04N 30°01' W 016°13'0 0.0 1018.3 20.1
2018-Jun-19 21:00N 30°01' W 016°13'1 0.7 1018.3 20.1
2018-Jun-19 20:06N 30°01' W 016°13'0 0.0 1018.0 20.1
2018-Jun-19 20:00N 30°01' W 016°13'0 0.0 1018.0 20.1
2018-Jun-19 19:08N 30°01' W 016°13'0 0.0 1017.6 20.1
2018-Jun-19 19:00N 30°01' W 016°13'0 0.0 1017.6 20.1
2018-Jun-19 18:04N 30°01' W 016°13'0 0.0 1017.5 20.1
2018-Jun-19 18:00N 30°01' W 016°13'1 0.7 1017.5 20.1
2018-Jun-19 17:05N 30°02' W 016°13'0 0.0 1017.7 20.1
2018-Jun-19 17:00N 30°02' W 016°13'1 0.6 1017.7 20.1
2018-Jun-19 16:04N 30°02' W 016°13'0 0.0 1018.1 20.1
2018-Jun-19 16:00N 30°02' W 016°13'1 0.7 1018.1 20.1
2018-Jun-19 15:05N 30°02' W 016°13'0 0.0 1018.2 20.1
2018-Jun-19 15:00N 30°02' W 016°13'1 0.6 1018.2 20.1
2018-Jun-19 14:05N 30°02' W 016°14'0 0.0 1018.5 20.1
2018-Jun-19 14:00N 30°02' W 016°14'1 0.9 1018.5 20.1
2018-Jun-19 13:05N 30°03' W 016°14'0 0.0 1018.8 20.1
2018-Jun-19 13:00N 30°03' W 016°14'1 0.7 1018.8 20.1
2018-Jun-19 12:05N 30°04' W 016°14'0 0.0 1019.2 20.1
2018-Jun-19 12:00N 30°04' W 016°14'1 0.9 1019.2 20.1
2018-Jun-19 11:05N 30°04' W 016°15'0 0.0 1019.3 20.0
2018-Jun-19 11:00N 30°04' W 016°15'1 0.6 1019.3 20.0
2018-Jun-19 10:05N 30°04' W 016°16'0 0.0 1019.2 19.9
2018-Jun-19 10:00N 30°04' W 016°16'1 0.6 1019.2 19.9
2018-Jun-19 09:06N 30°04' W 016°16'0 0.0 1019.2 19.9
2018-Jun-19 09:00N 30°04' W 016°16'1 0.3 1019.2 19.9
2018-Jun-19 07:04N 30°04' W 016°17'0 0.0 1018.6 19.9
2018-Jun-19 07:00N 30°04' W 016°17'1 0.6 1018.6 19.9
2018-Jun-19 06:06N 30°04' W 016°17'0 0.0 1018.2 19.9
2018-Jun-19 06:00N 30°04' W 016°17'1 0.6 1018.2 19.9
2018-Jun-19 05:07N 30°04' W 016°18'0 0.0 1018.2 19.9
2018-Jun-19 05:00N 30°04' W 016°18'0 0.0 1018.2 19.9
2018-Jun-19 04:04N 30°04' W 016°18'0 0.0 1018.0 19.9
2018-Jun-19 04:00N 30°04' W 016°18'0 0.0 1018.0 19.9
2018-Jun-19 03:08N 30°04' W 016°18'0 0.0 1018.4 19.9
2018-Jun-19 03:00N 30°04' W 016°18'0 0.0 1018.4 19.9
2018-Jun-19 02:04N 30°04' W 016°18'0 0.0 1018.8 19.9
2018-Jun-19 02:00N 30°04' W 016°18'1 0.6 1018.8 19.9
2018-Jun-19 01:00N 30°05' W 016°18'1 0.5 1019.1 19.9
2018-Jun-19 00:00N 30°05' W 016°19'1 0.7 1019.5 19.9
2018-Jun-18 23:05N 30°05' W 016°19'0 0.0 1019.7 20.0
2018-Jun-18 23:00N 30°05' W 016°19'0 0.0 1019.7 20.0
2018-Jun-18 22:00N 30°05' W 016°19'1 0.7 1019.4 20.0
2018-Jun-18 21:05N 30°06' W 016°19'0 0.0 1019.1 20.0
2018-Jun-18 21:00N 30°06' W 016°19'1 0.5 1019.1 20.0
2018-Jun-18 20:00N 30°06' W 016°19'1 0.6 1019.1 20.0
2018-Jun-18 19:04N 30°07' W 016°19'0 0.0 1018.8 20.1
2018-Jun-18 19:00N 30°07' W 016°19'1 0.5 1018.8 20.1
2018-Jun-18 18:00N 30°07' W 016°20'0 0.0 1018.9 20.1
2018-Jun-18 17:00N 30°07' W 016°20'1 0.9 1019.1 20.1
2018-Jun-18 16:05N 30°07' W 016°20'0 0.0 1019.2 20.2
2018-Jun-18 16:00N 30°07' W 016°20'0 0.0 1019.2 20.2
2018-Jun-18 15:08N 30°07' W 016°20'0 0.0 1019.6 20.1
2018-Jun-18 15:00N 30°07' W 016°20'1 0.6 1019.6 20.1
2018-Jun-18 14:04N 30°07' W 016°21'0 0.0 1020.0 20.0
2018-Jun-18 14:00N 30°07' W 016°21'1 0.6 1020.0 20.0
2018-Jun-18 13:04N 30°08' W 016°21'0 0.0 1020.3 19.9
2018-Jun-18 13:00N 30°08' W 016°21'1 0.5 1020.3 19.9
2018-Jun-18 12:00N 30°08' W 016°22'1 0.7 1020.6 19.8
2018-Jun-18 11:05N 30°08' W 016°22'0 0.0 1020.6 19.8
2018-Jun-18 11:00N 30°08' W 016°22'1 0.5 1020.6 19.8
2018-Jun-18 10:00N 30°08' W 016°22'0 0.0 1020.7 19.7
2018-Jun-18 09:04N 30°08' W 016°22'0 0.0 1020.6 19.7
2018-Jun-18 09:00N 30°08' W 016°22'1 0.8 1020.6 19.7
2018-Jun-18 08:00N 30°09' W 016°23'0 0.0 1020.3 19.7
2018-Jun-18 07:00N 30°09' W 016°23'1 0.5 1019.9 19.7
2018-Jun-18 06:00N 30°09' W 016°23'1 0.6 1019.6 19.7
2018-Jun-18 05:00N 30°10' W 016°23'0 0.0 1019.2 19.7
2018-Jun-18 04:00N 30°10' W 016°23'1 0.6 1019.4 19.7
2018-Jun-18 03:05N 30°10' W 016°24'0 0.0 1019.6 19.7
2018-Jun-18 03:00N 30°10' W 016°24'1 0.7 1019.6 19.7
2018-Jun-18 02:08N 30°10' W 016°24'0 0.0 1020.0 19.7
2018-Jun-18 02:00N 30°10' W 016°24'1 0.6 1020.0 19.7
2018-Jun-18 01:05N 30°10' W 016°25'0 0.0 1020.8 19.7
2018-Jun-18 01:00N 30°10' W 016°25'1 0.7 1020.8 19.7
2018-Jun-18 00:05N 30°11' W 016°25'0 0.0 1021.3 19.7
2018-Jun-18 00:00N 30°11' W 016°25'1 0.6 1021.3 19.7
2018-Jun-17 23:07N 30°11' W 016°25'0 0.0 1021.3 19.7
2018-Jun-17 23:00N 30°11' W 016°25'1 0.6 1021.3 19.7
2018-Jun-17 22:04N 30°11' W 016°25'0 0.0 1021.2 19.7
2018-Jun-17 22:00N 30°11' W 016°25'0 0.0 1021.2 19.7
2018-Jun-17 21:07N 30°11' W 016°25'0 0.0 1020.9 19.7
2018-Jun-17 21:00N 30°11' W 016°25'1 0.6 1020.9 19.7
2018-Jun-17 20:07N 30°11' W 016°26'0 0.0 1020.2 19.8
2018-Jun-17 20:00N 30°11' W 016°26'0 0.0 1020.2 19.8
2018-Jun-17 19:06N 30°11' W 016°26'0 0.0 1019.9 19.7
2018-Jun-17 19:00N 30°11' W 016°26'1 0.7 1019.9 19.7
2018-Jun-17 18:05N 30°12' W 016°26'1 6.2 1019.9 19.8
2018-Jun-17 18:00N 30°12' W 016°26'0 0.0 1019.9 19.8
2018-Jun-17 17:05N 30°12' W 016°26'0 0.0 1020.1 19.8
2018-Jun-17 17:00N 30°12' W 016°26'1 0.7 1020.1 19.8
2018-Jun-17 16:09N 30°13' W 016°26'0 0.0 1020.5 19.8
2018-Jun-17 16:00N 30°13' W 016°26'0 0.0 1020.5 19.8
2018-Jun-17 15:05N 30°13' W 016°26'0 0.0 1020.7 19.7
2018-Jun-17 15:00N 30°13' W 016°26'1 0.8 1020.7 19.7
2018-Jun-17 14:04N 30°13' W 016°27'0 0.0 1021.0 19.7
2018-Jun-17 14:00N 30°13' W 016°27'1 0.7 1021.0 19.7
2018-Jun-17 13:05N 30°14' W 016°27'0 0.0 1021.5 19.7
2018-Jun-17 13:00N 30°14' W 016°27'1 0.6 1021.5 19.7
2018-Jun-17 12:05N 30°14' W 016°28'0 0.0 1021.6 19.7
2018-Jun-17 12:00N 30°14' W 016°28'1 0.7 1021.6 19.7
2018-Jun-17 11:05N 30°14' W 016°28'0 0.0 1021.5 19.7
2018-Jun-17 11:00N 30°14' W 016°28'0 0.0 1021.5 19.7
2018-Jun-17 10:04N 30°14' W 016°28'1 7.8 1021.3 19.7
2018-Jun-17 10:00N 30°14' W 016°28'1 0.7 1021.3 19.7
2018-Jun-17 09:07N 30°15' W 016°28'0 0.0 1021.1 19.7
2018-Jun-17 09:00N 30°15' W 016°28'0 0.0 1021.1 19.7
2018-Jun-17 08:05N 30°15' W 016°28'0 0.0 1021.0 19.6
2018-Jun-17 08:00N 30°15' W 016°28'1 0.6 1021.0 19.7
2018-Jun-17 07:05N 30°15' W 016°29'0 0.0 1020.8 19.6
2018-Jun-17 07:00N 30°15' W 016°29'1 0.6 1020.8 19.7
2018-Jun-17 06:04N 30°16' W 016°29'0 0.0 1020.9 19.6
2018-Jun-17 06:00N 30°16' W 016°29'1 0.6 1020.9 19.7
2018-Jun-17 05:05N 30°16' W 016°29'0 0.0 1020.7 19.7
2018-Jun-17 05:00N 30°16' W 016°29'1 0.6 1020.7 19.7
2018-Jun-17 04:04N 30°16' W 016°29'0 0.0 1020.7 19.7
2018-Jun-17 04:00N 30°16' W 016°29'1 0.6 1020.7 19.7
2018-Jun-17 03:00N 30°17' W 016°29'1 0.6 1020.6 19.7
2018-Jun-17 02:06N 30°17' W 016°30'0 0.0 1020.9 19.7
2018-Jun-17 02:00N 30°17' W 016°30'1 0.7 1020.9 19.7
2018-Jun-17 01:05N 30°17' W 016°30'0 0.0 1021.3 19.7
2018-Jun-17 01:00N 30°17' W 016°30'1 0.6 1021.3 19.7
2018-Jun-17 00:06N 30°17' W 016°31'0 0.0 1022.0 19.7
2018-Jun-17 00:00N 30°17' W 016°31'0 0.0 1022.0 19.7
2018-Jun-16 23:04N 30°17' W 016°31'0 0.0 1022.1 19.7
2018-Jun-16 23:00N 30°17' W 016°31'1 0.7 1022.1 19.7
2018-Jun-16 22:06N 30°18' W 016°31'0 0.0 1022.0 19.7
2018-Jun-16 22:00N 30°18' W 016°31'1 0.6 1022.0 19.7
2018-Jun-16 21:05N 30°18' W 016°31'0 0.0 1021.5 19.7
2018-Jun-16 21:00N 30°18' W 016°31'1 0.6 1021.5 19.7
2018-Jun-16 20:00N 30°19' W 016°31'0 0.0 1021.0 19.7
2018-Jun-16 19:04N 30°19' W 016°31'0 0.0 1020.8 19.8
2018-Jun-16 19:00N 30°19' W 016°31'1 0.6 1020.8 19.8
2018-Jun-16 18:04N 30°19' W 016°31'0 0.0 1020.6 19.8
2018-Jun-16 18:00N 30°19' W 016°31'0 0.0 1020.6 19.8
2018-Jun-16 17:06N 30°19' W 016°31'0 0.0 1020.9 19.8
2018-Jun-16 17:00N 30°19' W 016°31'1 0.7 1020.9 19.8
2018-Jun-16 16:05N 30°20' W 016°31'0 0.0 1021.0 19.8
2018-Jun-16 16:00N 30°20' W 016°31'1 0.6 1021.0 19.8
2018-Jun-16 15:04N 30°20' W 016°31'0 0.0 1021.3 19.8
2018-Jun-16 15:00N 30°20' W 016°31'1 0.7 1021.3 19.8
2018-Jun-16 14:06N 30°21' W 016°31'0 0.0 1021.6 19.8
2018-Jun-16 14:00N 30°21' W 016°31'1 0.8 1021.6 19.8
2018-Jun-16 13:04N 30°22' W 016°32'0 0.0 1021.6 19.7
2018-Jun-16 13:00N 30°22' W 016°32'1 0.9 1021.6 19.7
2018-Jun-16 12:06N 30°22' W 016°32'0 0.0 1021.9 19.7
2018-Jun-16 12:00N 30°22' W 016°32'1 0.9 1021.9 19.7
2018-Jun-16 11:05N 30°23' W 016°33'0 0.0 1021.9 19.7
2018-Jun-16 11:00N 30°23' W 016°33'1 0.6 1021.9 19.7
2018-Jun-16 10:05N 30°23' W 016°34'0 0.0 1021.7 19.7
2018-Jun-16 10:00N 30°23' W 016°34'0 0.0 1021.7 19.7
2018-Jun-16 09:04N 30°23' W 016°34'0 0.0 1021.4 19.7
2018-Jun-16 09:00N 30°23' W 016°34'0 0.0 1021.4 19.7
2018-Jun-16 08:05N 30°23' W 016°34'1 6.2 1021.2 19.7
2018-Jun-16 08:00N 30°23' W 016°34'1 0.7 1021.2 19.7
2018-Jun-16 07:05N 30°23' W 016°34'0 0.0 1020.5 19.7
2018-Jun-16 07:00N 30°23' W 016°34'1 0.5 1020.5 19.7
2018-Jun-16 06:01N 30°23' W 016°34'0 0.0 1020.0 19.7
2018-Jun-16 06:00N 30°23' W 016°34'0 0.0 1020.0 19.7
2018-Jun-16 05:05N 30°23' W 016°34'0 0.0 1019.8 19.7
2018-Jun-16 05:00N 30°23' W 016°34'1 0.6 1019.8 19.7
2018-Jun-16 04:00N 30°24' W 016°34'1 0.7 1019.8 19.7
2018-Jun-16 03:05N 30°25' W 016°34'0 0.0 1019.9 19.7
2018-Jun-16 03:00N 30°25' W 016°34'1 0.6 1019.9 19.7
2018-Jun-16 02:04N 30°25' W 016°34'0 0.0 1020.1 19.7
2018-Jun-16 02:00N 30°25' W 016°34'1 0.7 1020.1 19.7
2018-Jun-16 01:05N 30°26' W 016°34'0 0.0 1020.4 19.7
2018-Jun-16 01:00N 30°26' W 016°34'1 0.9 1020.4 19.7
2018-Jun-16 00:05N 30°26' W 016°34'0 0.0 1021.0 19.7
2018-Jun-16 00:00N 30°26' W 016°34'1 0.6 1021.0 19.7
2018-Jun-15 23:04N 30°27' W 016°34'0 0.0 1021.0 19.8
2018-Jun-15 23:00N 30°27' W 016°34'1 0.9 1021.0 19.8
2018-Jun-15 22:06N 30°28' W 016°35'0 0.0 1020.6 19.8
2018-Jun-15 22:00N 30°28' W 016°35'1 0.7 1020.6 19.8
2018-Jun-15 21:08N 30°28' W 016°35'0 0.0 1019.9 19.8
2018-Jun-15 21:00N 30°28' W 016°35'1 0.6 1019.9 19.8
2018-Jun-15 20:05N 30°28' W 016°35'1 7.2 1019.6 19.8
2018-Jun-15 20:00N 30°29' W 016°35'0 0.0 1019.6 19.8
2018-Jun-15 19:04N 30°29' W 016°35'0 0.0 1019.4 19.8
2018-Jun-15 19:00N 30°29' W 016°35'1 0.7 1019.4 19.8
2018-Jun-15 18:08N 30°29' W 016°35'0 0.0 1019.4 19.8
2018-Jun-15 18:00N 30°29' W 016°35'1 0.7 1019.4 19.8
2018-Jun-15 17:05N 30°30' W 016°35'0 0.0 1019.6 19.9
2018-Jun-15 17:00N 30°30' W 016°35'1 0.7 1019.6 19.9
2018-Jun-15 16:05N 30°31' W 016°35'0 0.0 1019.9 19.9
2018-Jun-15 16:00N 30°31' W 016°35'1 0.7 1019.9 19.9
2018-Jun-15 15:08N 30°31' W 016°35'0 0.0 1020.2 19.9
2018-Jun-15 15:00N 30°31' W 016°35'1 0.8 1020.2 19.9
2018-Jun-15 14:04N 30°32' W 016°36'0 0.0 1020.5 19.8
2018-Jun-15 14:00N 30°32' W 016°36'0 0.0 1020.5 19.8
2018-Jun-15 13:05N 30°32' W 016°36'0 0.0 1020.9 19.8
2018-Jun-15 13:00N 30°32' W 016°36'1 0.9 1020.9 19.8
2018-Jun-15 12:06N 30°32' W 016°37'0 0.0 1021.3 19.7
2018-Jun-15 12:00N 30°32' W 016°37'1 0.7 1021.3 19.7
2018-Jun-15 11:07N 30°33' W 016°37'0 0.0 1021.3 19.7
2018-Jun-15 11:00N 30°33' W 016°37'1 0.6 1021.3 19.7
2018-Jun-15 10:07N 30°33' W 016°37'0 0.0 1021.4 19.6
2018-Jun-15 10:00N 30°33' W 016°37'1 0.6 1021.4 19.6
2018-Jun-15 09:04N 30°34' W 016°37'0 0.0 1021.2 19.6
2018-Jun-15 09:00N 30°34' W 016°37'1 0.7 1021.2 19.6
2018-Jun-15 08:07N 30°34' W 016°37'0 0.0 1021.0 19.6
2018-Jun-15 08:00N 30°34' W 016°37'1 0.7 1021.0 19.6
2018-Jun-15 07:05N 30°35' W 016°37'0 0.0 1020.4 19.6
2018-Jun-15 07:00N 30°35' W 016°37'1 0.9 1020.4 19.6
2018-Jun-15 06:06N 30°35' W 016°37'1 5.2 1020.3 19.6
2018-Jun-15 06:00N 30°35' W 016°37'1 0.9 1020.3 19.6
2018-Jun-15 05:05N 30°36' W 016°37'0 0.0 1020.3 19.6
2018-Jun-15 05:00N 30°36' W 016°37'1 0.7 1020.3 19.6
2018-Jun-15 04:07N 30°37' W 016°37'0 0.0 1020.4 19.6
2018-Jun-15 04:00N 30°37' W 016°37'1 0.6 1020.4 19.7
2018-Jun-15 03:04N 30°37' W 016°37'0 0.0 1020.7 19.6
2018-Jun-15 03:00N 30°37' W 016°37'1 0.9 1020.7 19.7
2018-Jun-15 02:05N 30°38' W 016°37'0 0.0 1021.2 19.7
2018-Jun-15 02:00N 30°38' W 016°37'1 0.7 1021.2 19.7
2018-Jun-15 01:06N 30°38' W 016°37'0 0.0 1021.9 19.7
2018-Jun-15 01:00N 30°38' W 016°37'1 0.7 1021.9 19.7
2018-Jun-15 00:07N 30°39' W 016°37'0 0.0 1022.3 19.7
2018-Jun-15 00:00N 30°39' W 016°37'1 0.7 1022.3 19.7
2018-Jun-14 23:05N 30°40' W 016°37'1 6.2 1022.5 19.7
2018-Jun-14 23:00N 30°40' W 016°38'0 0.0 1022.5 19.7
2018-Jun-14 22:04N 30°40' W 016°38'1 9.0 1022.5 19.7
2018-Jun-14 22:00N 30°40' W 016°38'0 0.0 1022.5 19.7
2018-Jun-14 21:07N 30°40' W 016°38'0 0.0 1022.1 19.7
2018-Jun-14 21:00N 30°40' W 016°38'1 0.9 1022.1 19.7
2018-Jun-14 20:05N 30°41' W 016°37'0 0.0 1022.1 19.7
2018-Jun-14 20:00N 30°41' W 016°37'1 0.6 1022.1 19.7
2018-Jun-14 19:04N 30°41' W 016°37'0 0.0 1022.0 19.7
2018-Jun-14 19:00N 30°41' W 016°37'1 0.7 1022.0 19.7
2018-Jun-14 18:05N 30°42' W 016°37'0 0.0 1021.8 19.8
2018-Jun-14 18:00N 30°42' W 016°37'1 0.9 1021.8 19.8
2018-Jun-14 17:08N 30°43' W 016°37'0 0.0 1021.8 19.7
2018-Jun-14 17:00N 30°43' W 016°37'1 0.6 1021.8 19.7
2018-Jun-14 16:04N 30°43' W 016°37'0 0.0 1022.2 19.8
2018-Jun-14 16:00N 30°43' W 016°37'1 0.6 1022.2 19.8
2018-Jun-14 15:01N 30°44' W 016°37'0 0.0 1022.4 19.7
2018-Jun-14 15:00N 30°44' W 016°37'1 0.8 1022.4 19.7
2018-Jun-14 14:04N 30°44' W 016°36'0 0.0 1022.7 19.7
2018-Jun-14 14:00N 30°44' W 016°36'0 0.0 1022.7 19.7
2018-Jun-14 13:06N 30°44' W 016°36'0 0.0 1023.1 19.7
2018-Jun-14 13:00N 30°44' W 016°36'1 0.6 1023.1 19.7
2018-Jun-14 12:01N 30°45' W 016°36'0 0.0 1023.3 19.7
2018-Jun-14 12:00N 30°45' W 016°36'0 0.0 1023.3 19.7
2018-Jun-14 11:05N 30°45' W 016°36'0 0.0 1023.4 19.7
2018-Jun-14 11:00N 30°45' W 016°36'1 0.8 1023.4 19.7
2018-Jun-14 10:04N 30°46' W 016°35'0 0.0 1023.2 19.7
2018-Jun-14 10:00N 30°46' W 016°35'1 0.7 1023.2 19.7
2018-Jun-14 09:08N 30°46' W 016°35'0 0.0 1023.1 19.7
2018-Jun-14 09:00N 30°46' W 016°35'1 1.4 1023.1 19.7
2018-Jun-14 08:05N 30°47' W 016°35'   1022.8 19.7

Dump ship's entire track history